Time;durP1;ratioP1;P1;durP2;ratioP2;P2;SDS_P1;SDS_P2;PMS_P1;PMS_P2;Temp;Humidity;BMP_temperature;BMP_pressure;BME280_temperature;BME280_humidity;BME280_pressure;Samples;Min_cycle;Max_cycle;Signal;HPM_P1;HPM_P2
2022/08/17 00:00:48;;;;;;;1999.90;999.90;;;;;;;19.40;100.00;94756.56;5098213;28;20289;-56
2022/08/17 00:03:17;;;;;;;1999.90;999.90;;;;;;;19.35;100.00;94759.97;5098272;28;20225;-57
2022/08/17 00:05:53;;;;;;;1999.90;999.90;;;;;;;19.32;100.00;94755.41;5097772;28;20180;-57
2022/08/17 00:08:22;;;;;;;1999.90;999.90;;;;;;;19.32;100.00;94754.63;5098126;28;20183;-54
2022/08/17 00:10:48;;;;;;;1999.90;999.90;;;;;;;19.29;100.00;94750.03;5097826;28;20180;-52
2022/08/17 00:13:24;;;;;;;1999.90;999.90;;;;;;;19.25;100.00;94746.69;5097395;28;20183;-54
2022/08/17 00:15:50;;;;;;;1999.90;999.90;;;;;;;19.14;100.00;94736.16;5097990;28;20190;-56
2022/08/17 00:18:15;;;;;;;1999.90;999.90;;;;;;;19.12;100.00;94729.53;5097699;28;20184;-55
2022/08/17 00:20:41;;;;;;;1999.90;999.90;;;;;;;19.00;100.00;94727.81;5097648;28;20213;-55
2022/08/17 00:23:10;;;;;;;1999.90;999.90;;;;;;;18.91;100.00;94725.13;5098074;28;20183;-56
2022/08/17 00:25:36;;;;;;;1999.90;999.90;;;;;;;18.83;100.00;94715.66;5097817;28;20188;-55
2022/08/17 00:28:02;;;;;;;1999.90;999.90;;;;;;;18.81;100.00;94720.88;5097616;28;20212;-56
2022/08/17 00:30:28;;;;;;;1999.90;999.90;;;;;;;18.75;100.00;94711.69;5097581;28;20183;-54
2022/08/17 00:32:53;;;;;;;1999.90;999.90;;;;;;;18.72;100.00;94707.13;5097342;28;20215;-54
2022/08/17 00:35:22;;;;;;;1999.90;999.90;;;;;;;18.71;100.00;94700.03;5097069;28;20196;-53
2022/08/17 00:37:49;;;;;;;1999.90;999.90;;;;;;;18.63;100.00;94698.88;5097320;28;20248;-53
2022/08/17 00:40:15;;;;;;;1999.90;999.90;;;;;;;18.59;100.00;94710.13;5097791;28;20272;-54
2022/08/17 00:42:42;;;;;;;1999.90;999.90;;;;;;;18.59;100.00;94703.81;5097466;28;20183;-59
2022/08/17 00:45:09;;;;;;;1999.90;999.90;;;;;;;18.62;100.00;94697.34;5098027;28;20180;-63
2022/08/17 00:47:35;;;;;;;1999.90;999.90;;;;;;;18.62;100.00;94702.88;5097107;28;20175;-62
2022/08/17 00:50:00;;;;;;;1999.90;999.90;;;;;;;18.56;100.00;94710.28;5114958;28;20190;-62
2022/08/17 00:52:31;;;;;;;1999.90;999.90;;;;;;;18.49;100.00;94699.59;5097203;28;20203;-62
2022/08/17 00:54:57;;;;;;;1999.90;999.90;;;;;;;18.45;100.00;94699.00;5097122;28;20183;-62
2022/08/17 00:57:38;;;;;;;1999.90;999.90;;;;;;;18.38;100.00;94688.28;5097219;28;20184;-62
2022/08/17 01:00:10;;;;;;;1999.90;999.90;;;;;;;18.39;100.00;94693.34;5097578;28;20188;-60
2022/08/17 01:02:41;;;;;;;1999.90;999.90;;;;;;;18.41;100.00;94684.59;5097090;28;20187;-61
2022/08/17 01:05:13;;;;;;;1999.90;999.90;;;;;;;18.41;100.00;94690.13;5097097;28;20215;-61
2022/08/17 01:07:39;;;;;;;1999.90;999.90;;;;;;;18.47;100.00;94685.47;5096724;28;20182;-61
2022/08/17 01:10:08;;;;;;;1999.90;999.90;;;;;;;18.47;100.00;94693.78;5096753;28;20276;-62
2022/08/17 01:12:35;;;;;;;1999.90;999.90;;;;;;;18.49;100.00;94681.00;5097049;28;20203;-62
2022/08/17 01:15:02;;;;;;;1999.90;999.90;;;;;;;18.53;100.00;94689.09;5097088;28;20188;-61
2022/08/17 01:17:27;;;;;;;1999.90;999.90;;;;;;;18.51;100.00;94686.06;5096538;28;20272;-58
2022/08/17 01:19:52;;;;;;;1999.90;999.90;;;;;;;18.46;100.00;94678.41;5096735;28;20219;-59
2022/08/17 01:22:24;;;;;;;1999.90;999.90;;;;;;;18.47;100.00;94680.69;5096218;28;20282;-55
2022/08/17 01:24:55;;;;;;;1999.90;999.90;;;;;;;18.49;100.00;94688.53;5096468;28;20198;-55
2022/08/17 01:27:20;;;;;;;1999.90;999.90;;;;;;;18.52;100.00;94687.59;5097122;28;20180;-54
2022/08/17 01:29:51;;;;;;;1999.90;999.90;;;;;;;18.51;100.00;94675.00;5097143;28;20195;-53
2022/08/17 01:32:17;;;;;;;1999.90;999.90;;;;;;;18.51;100.00;94683.28;5096774;28;20235;-53
2022/08/17 01:34:43;;;;;;;1999.90;999.90;;;;;;;18.49;100.00;94689.28;5097062;28;20199;-54
2022/08/17 01:37:09;;;;;;;1999.90;999.90;;;;;;;18.40;100.00;94677.53;5096374;28;20180;-51
2022/08/17 01:39:43;;;;;;;1999.90;999.90;;;;;;;18.38;100.00;94683.53;5096539;28;20194;-58
2022/08/17 01:42:17;;;;;;;1999.90;999.90;;;;;;;18.34;100.00;94691.22;5096975;28;20184;-59
2022/08/17 01:44:43;;;;;;;1999.90;999.90;;;;;;;18.27;100.00;94688.03;5096784;28;20211;-59
2022/08/17 01:47:09;;;;;;;1999.90;999.90;;;;;;;18.26;100.00;94695.56;5096260;28;20236;-59
2022/08/17 01:49:34;;;;;;;1999.90;999.90;;;;;;;18.28;100.00;94679.25;5096439;28;20226;-59
2022/08/17 01:52:05;;;;;;;1999.90;999.90;;;;;;;18.29;100.00;94685.56;5096000;28;20260;-59
2022/08/17 01:54:31;;;;;;;1999.90;999.90;;;;;;;18.30;100.00;94684.31;5096821;28;20275;-58
2022/08/17 01:56:56;;;;;;;1999.90;999.90;;;;;;;18.28;100.00;94686.81;5096230;28;20226;-60
2022/08/17 01:59:22;;;;;;;1999.90;999.90;;;;;;;18.21;100.00;94685.13;5096211;28;20188;-60
2022/08/17 02:01:47;;;;;;;1999.90;999.90;;;;;;;18.02;100.00;94677.41;5096122;28;20233;-59
2022/08/17 02:04:14;;;;;;;1999.90;999.90;;;;;;;17.95;100.00;94661.19;5095931;28;20192;-61
2022/08/17 02:06:42;;;;;;;1999.90;999.90;;;;;;;17.77;100.00;94656.50;5095897;28;20284;-61
2022/08/17 02:09:09;;;;;;;1999.90;999.90;;;;;;;17.71;100.00;94641.03;5096054;28;20210;-60
2022/08/17 02:11:38;;;;;;;1999.90;999.90;;;;;;;17.68;100.00;94636.44;5096165;28;20229;-60
2022/08/17 02:14:07;;;;;;;1999.90;999.90;;;;;;;17.68;100.00;94641.97;5096307;28;20184;-58
2022/08/17 02:16:35;;;;;;;1999.90;999.90;;;;;;;17.70;100.00;94637.50;5096320;28;20201;-59
2022/08/17 02:19:00;;;;;;;1999.90;999.90;;;;;;;17.71;100.00;94641.81;5095613;28;20257;-60
2022/08/17 02:21:26;;;;;;;1999.90;999.90;;;;;;;17.69;100.00;94643.50;5095991;28;20282;-58
2022/08/17 02:23:53;;;;;;;1999.90;999.90;;;;;;;17.75;100.00;94652.69;5095775;28;20198;-59
2022/08/17 02:26:20;;;;;;;1999.90;999.90;;;;;;;17.84;100.00;94647.09;5095724;28;20176;-58
2022/08/17 02:28:45;;;;;;;1999.90;999.90;;;;;;;17.93;100.00;94652.59;5095798;28;20184;-59
2022/08/17 02:31:11;;;;;;;1999.90;999.90;;;;;;;17.92;100.00;94646.28;5095750;28;20266;-62
2022/08/17 02:33:38;;;;;;;1999.90;999.90;;;;;;;17.95;100.00;94644.63;5095726;28;20183;-58
2022/08/17 02:36:05;;;;;;;1999.90;999.90;;;;;;;17.94;100.00;94645.81;5098676;28;20180;-59
2022/08/17 02:38:30;;;;;;;1999.90;999.90;;;;;;;17.96;100.00;94643.38;5099105;28;20270;-59
2022/08/17 02:40:57;;;;;;;1999.90;999.90;;;;;;;17.94;100.00;94632.00;5099334;28;20230;-59
2022/08/17 02:43:24;;;;;;;1999.90;999.90;;;;;;;17.90;100.00;94625.91;5116927;28;20187;-58
2022/08/17 02:45:50;;;;;;;1999.90;999.90;;;;;;;17.86;100.00;94628.06;5099211;28;20198;-59
2022/08/17 02:48:16;;;;;;;1999.90;999.90;;;;;;;17.73;100.00;94620.00;5099031;28;20218;-58
2022/08/17 02:50:41;;;;;;;1999.90;999.90;;;;;;;17.65;100.00;94616.06;5099169;28;20215;-62
2022/08/17 02:53:06;;;;;;;1999.90;999.90;;;;;;;17.60;100.00;94610.41;5099002;28;20252;-59
2022/08/17 02:55:36;;;;;;;1999.90;999.90;;;;;;;17.58;100.00;94621.13;5098973;28;20183;-58
2022/08/17 02:58:02;;;;;;;1999.90;999.90;;;;;;;17.58;100.00;94610.88;5099017;28;20183;-58
2022/08/17 03:00:34;;;;;;;1999.90;999.90;;;;;;;17.58;100.00;94612.84;5099001;28;20183;-59
2022/08/17 03:03:01;;;;;;;1999.90;999.90;;;;;;;17.58;100.00;94604.56;5099218;28;20188;-59
2022/08/17 03:05:29;;;;;;;1999.90;999.90;;;;;;;17.56;100.00;94607.78;5098722;28;20199;-59
2022/08/17 03:07:56;;;;;;;1999.90;999.90;;;;;;;17.56;100.00;94601.53;5098866;28;20195;-70
2022/08/17 03:10:23;;;;;;;1999.90;999.90;;;;;;;17.50;100.00;94597.84;5098736;28;20207;-71
2022/08/17 03:12:49;;;;;;;1999.90;999.90;;;;;;;17.47;100.00;94593.25;5099054;28;20207;-70
2022/08/17 03:15:21;;;;;;;1999.90;999.90;;;;;;;17.42;100.00;94586.41;5098610;28;20278;-71
2022/08/17 03:17:47;;;;;;;1999.90;999.90;;;;;;;17.37;100.00;94586.25;5098758;28;20192;-70
2022/08/17 03:20:15;;;;;;;1999.90;999.90;;;;;;;17.31;100.00;94574.31;5098722;28;20194;-72
2022/08/17 03:22:42;;;;;;;1999.90;999.90;;;;;;;17.31;100.00;94574.31;5098931;28;20183;-70
2022/08/17 03:25:10;;;;;;;1999.90;999.90;;;;;;;17.30;100.00;94579.03;5098759;28;20214;-61
2022/08/17 03:27:37;;;;;;;1999.90;999.90;;;;;;;17.28;100.00;94564.97;5098551;28;20369;-59
2022/08/17 03:30:07;;;;;;;1999.90;999.90;;;;;;;17.26;100.00;94577.69;5098635;28;20184;-58
2022/08/17 03:32:42;;;;;;;1999.90;999.90;;;;;;;17.23;100.00;94582.13;5098302;28;20199;-58
2022/08/17 03:35:09;;;;;;;1999.90;999.90;;;;;;;17.23;100.00;94598.69;5098295;28;20296;-58
2022/08/17 03:37:35;;;;;;;1999.90;999.90;;;;;;;17.18;100.00;94595.78;5098358;28;20252;-57
2022/08/17 03:40:02;;;;;;;1999.90;999.90;;;;;;;17.13;100.00;94593.69;5098241;28;20246;-58
2022/08/17 03:42:27;;;;;;;1999.90;999.90;;;;;;;17.14;100.00;94592.44;5097852;28;20184;-58
2022/08/17 03:44:55;;;;;;;1999.90;999.90;;;;;;;17.12;100.00;94589.41;5098339;28;20198;-70
2022/08/17 03:58:36;;;;;;;1999.90;999.90;;;;;;;17.14;100.00;94603.47;5116389;28;20195;-58
2022/08/17 04:01:03;;;;;;;1999.90;999.90;;;;;;;17.16;100.00;94606.56;5097633;28;20184;-58
2022/08/17 04:03:28;;;;;;;1999.90;999.90;;;;;;;17.21;100.00;94609.44;5097879;28;20179;-69
2022/08/17 04:05:53;;;;;;;1999.90;999.90;;;;;;;17.27;100.00;94612.34;5097821;28;20180;-58
2022/08/17 04:08:19;;;;;;;1999.90;999.90;;;;;;;17.27;100.00;94615.88;5097699;28;20266;-59
2022/08/17 04:10:44;;;;;;;1999.90;999.90;;;;;;;17.27;100.00;94607.59;5097852;28;20225;-58
2022/08/17 04:13:10;;;;;;;1999.90;999.90;;;;;;;17.24;100.00;94613.28;5097729;28;20192;-58
2022/08/17 04:15:35;;;;;;;1999.90;999.90;;;;;;;17.19;100.00;94617.41;5097841;28;20329;-57
2022/08/17 04:18:01;;;;;;;1999.90;999.90;;;;;;;17.18;100.00;94620.63;5098269;28;20184;-58
2022/08/17 04:20:27;;;;;;;1999.90;999.90;;;;;;;17.19;100.00;94606.38;5097694;28;20192;-60
2022/08/17 04:23:02;;;;;;;1999.90;999.90;;;;;;;17.21;100.00;94603.94;5098171;28;20180;-60
2022/08/17 04:25:31;;;;;;;1999.90;999.90;;;;;;;17.23;100.00;94603.47;5097483;28;20243;-70
2022/08/17 04:27:57;;;;;;;1999.90;999.90;;;;;;;17.23;100.00;94603.47;5097984;28;20234;-69
2022/08/17 04:30:23;;;;;;;1999.90;999.90;;;;;;;17.15;100.00;94589.22;5097286;28;20184;-69
2022/08/17 04:32:59;;;;;;;1999.90;999.90;;;;;;;17.18;100.00;94588.28;5097874;28;20192;-69
2022/08/17 04:35:27;;;;;;;1999.90;999.90;;;;;;;17.20;100.00;94596.88;5097520;28;20184;-71
2022/08/17 04:37:53;;;;;;;1999.90;999.90;;;;;;;17.34;100.00;94603.72;5097404;28;20180;-68
2022/08/17 04:43:12;;;;;;;1999.90;999.90;;;;;;;17.62;100.00;94622.50;5115283;28;20193;-57
2022/08/17 04:45:43;;;;;;;1999.90;999.90;;;;;;;17.74;100.00;94629.06;5097492;28;20195;-57
2022/08/17 04:48:08;;;;;;;1999.90;999.90;;;;;;;17.97;100.00;94642.13;5097057;28;20194;-57
2022/08/17 04:50:35;;;;;;;1999.90;999.90;;;;;;;18.23;100.00;94649.50;5097174;28;20179;-56
2022/08/17 04:53:01;;;;;;;1999.90;999.90;;;;;;;18.45;100.00;94665.81;5096914;28;20214;-57
2022/08/17 04:55:26;;;;;;;1999.90;999.90;;;;;;;18.70;100.00;94681.91;5097193;28;20179;-57
2022/08/17 04:57:52;;;;;;;1999.90;999.90;;;;;;;19.08;100.00;94676.34;5096165;28;20190;-58
2022/08/17 05:00:17;;;;;;;1999.90;999.90;;;;;;;19.45;100.00;94702.50;5096843;28;20211;-65
2022/08/17 05:02:47;;;;;;;1999.90;999.90;;;;;;;19.76;100.00;94696.47;5096996;28;20194;-63
2022/08/17 05:05:18;;;;;;;1999.90;999.90;;;;;;;19.95;100.00;94695.78;5096887;28;20176;-65
2022/08/17 05:07:43;;;;;;;1999.90;999.90;;;;;;;20.41;100.00;94707.06;5097204;28;20183;-65
2022/08/17 05:10:09;;;;;;;1999.90;999.90;;;;;;;20.92;100.00;94713.59;5096809;28;20203;-64
2022/08/17 05:12:34;;;;;;;1999.90;999.90;;;;;;;21.35;100.00;94726.44;5096820;28;20210;-61
2022/08/17 05:15:00;;;;;;;1999.90;999.90;;;;;;;21.50;100.00;94729.91;5096582;28;20191;-63
2022/08/17 05:17:25;;;;;;;1999.90;999.90;;;;;;;21.88;100.00;94729.53;5097276;28;20184;-60
2022/08/17 05:19:50;;;;;;;1999.90;999.90;;;;;;;22.60;100.00;94741.22;5097164;28;20194;-60
2022/08/17 05:22:16;;;;;;;1999.90;999.90;;;;;;;23.05;100.00;94753.38;5096624;28;20188;-59
2022/08/17 05:24:41;;;;;;;1999.90;999.90;;;;;;;23.13;100.00;94759.97;5096622;28;20194;-59
2022/08/17 05:27:07;;;;;;;1999.90;999.90;;;;;;;23.13;100.00;94757.19;5096580;28;20194;-60
2022/08/17 05:29:32;;;;;;;1999.90;999.90;;;;;;;23.50;100.00;94752.28;5096619;28;20183;-59
2022/08/17 05:31:57;;;;;;;1999.90;999.90;;;;;;;23.86;100.00;94751.34;5096647;28;20204;-59
2022/08/17 05:34:23;;;;;;;1999.90;999.90;;;;;;;24.46;99.09;94754.19;5096243;28;20228;-66
2022/08/17 05:36:48;;;;;;;1999.90;999.90;;;;;;;24.91;95.56;94766.09;5096618;28;20180;-59
2022/08/17 05:39:14;;;;;;;1999.90;999.90;;;;;;;25.32;90.95;94759.38;5096377;28;20187;-60
2022/08/17 05:41:39;;;;;;;1999.90;999.90;;;;;;;25.75;88.47;94762.50;5096508;28;20175;-60
2022/08/17 05:44:05;;;;;;;1999.90;999.90;;;;;;;25.97;87.33;94753.22;5096892;28;20264;-59
2022/08/17 05:46:36;;;;;;;1999.90;999.90;;;;;;;26.64;83.38;94752.19;5096403;28;20213;-60
2022/08/17 05:49:06;;;;;;;1999.90;999.90;;;;;;;27.02;79.84;94765.03;5096064;28;20202;-58
2022/08/17 05:51:57;;;;;;;1999.90;999.90;;;;;;;26.74;80.41;94763.81;5096456;28;20204;-59
2022/08/17 05:54:55;;;;;;;1999.90;999.90;;;;;;;27.20;77.92;94769.94;5096149;28;20187;-59
2022/08/17 05:57:54;;;;;;;1999.90;999.90;;;;;;;27.85;76.32;94764.84;5068903;28;20257;-58
2022/08/17 06:00:34;;;;;;;1999.90;999.90;;;;;;;28.51;72.21;94773.63;5055060;28;20189;-58
2022/08/17 06:03:33;;;;;;;1999.90;999.90;;;;;;;29.06;69.37;94769.88;5054979;28;20188;-58
2022/08/17 06:06:14;;;;;;;1999.90;999.90;;;;;;;28.91;68.87;94767.53;5054904;28;20224;-59
2022/08/17 06:09:07;;;;;;;1999.90;999.90;;;;;;;28.92;68.71;94768.31;5055352;28;20204;-58
2022/08/17 06:11:55;;;;;;;1999.90;999.90;;;;;;;29.61;66.18;94771.63;5058760;28;20207;-59
2022/08/17 06:14:48;;;;;;;1999.90;999.90;;;;;;;30.66;61.44;94778.47;5057912;28;20204;-66
2022/08/17 06:17:20;;;;;;;1999.90;999.90;;;;;;;30.80;57.04;94777.13;5058497;28;20193;-67
2022/08/17 06:20:00;;;;;;;1999.90;999.90;;;;;;;30.40;58.67;94784.22;5058698;28;20185;-66
2022/08/17 06:22:31;;;;;;;1999.90;999.90;;;;;;;30.43;58.84;94788.78;5058314;28;20208;-66
2022/08/17 06:25:01;;;;;;;1999.90;999.90;;;;;;;31.47;54.97;94782.56;5058729;28;20230;-66
2022/08/17 06:27:45;;;;;;;1999.90;999.90;;;;;;;32.40;51.87;94787.53;5075204;28;20185;-67
2022/08/17 06:30:14;;;;;;;1999.90;999.90;;;;;;;32.98;48.44;94789.53;5099922;28;20190;-58
2022/08/17 06:32:46;;;;;;;1999.90;999.90;;;;;;;32.92;47.51;94792.56;5099279;28;20268;-62
2022/08/17 06:35:18;;;;;;;1999.90;999.90;;;;;;;33.38;47.46;94787.66;5099257;28;20268;-61
2022/08/17 06:38:22;;;;;;;1999.90;999.90;;;;;;;33.76;44.00;94803.28;5117315;28;20193;-61
2022/08/17 06:40:55;;;;;;;1999.90;999.90;;;;;;;33.82;43.17;94797.41;5090010;28;20236;-61
2022/08/17 06:44:00;;;;;;;1999.90;999.90;;;;;;;34.36;42.46;94805.19;5099527;28;20214;-61
2022/08/17 06:46:35;;;;;;;1999.90;999.90;;;;;;;34.86;40.31;94806.84;5099406;28;20265;-61
2022/08/17 06:49:24;;;;;;;1999.90;999.90;;;;;;;34.60;40.21;94815.13;5117438;28;20218;-61
2022/08/17 06:52:15;;;;;;;1999.90;999.90;;;;;;;34.73;40.70;94814.84;5116923;28;20245;-60
2022/08/17 06:55:02;;;;;;;1999.90;999.90;;;;;;;34.99;39.75;94808.66;5098943;28;20209;-60
2022/08/17 06:57:31;;;;;;;1999.90;999.90;;;;;;;35.66;38.95;94813.03;5099115;28;20213;-61
2022/08/17 07:00:11;;;;;;;1999.90;999.90;;;;;;;35.91;37.97;94810.91;5098866;28;20229;-61
2022/08/17 07:02:44;;;;;;;1999.90;999.90;;;;;;;35.08;38.10;94813.69;5098738;28;20187;-61
2022/08/17 07:05:12;;;;;;;1999.90;999.90;;;;;;;36.11;36.99;94818.25;5099146;28;20199;-61
2022/08/17 07:10:24;;;;;;;1999.90;999.90;;;;;;;36.53;35.24;94830.31;5117168;28;20234;-69
2022/08/17 07:12:54;;;;;;;1999.90;999.90;;;;;;;37.54;33.61;94817.03;5099166;28;20204;-68
2022/08/17 07:15:26;;;;;;;1999.90;999.90;;;;;;;37.34;34.33;94824.03;5099092;28;20176;-68
2022/08/17 07:17:51;;;;;;;1999.90;999.90;;;;;;;38.27;32.82;94829.81;5099238;28;20184;-70
2022/08/17 07:20:21;;;;;;;1999.90;999.90;;;;;;;38.75;31.61;94833.41;5098306;28;20275;-70
2022/08/17 07:22:55;;;;;;;1999.90;999.90;;;;;;;38.57;31.74;94829.25;5098315;28;20256;-69
2022/08/17 07:25:21;;;;;;;1999.90;999.90;;;;;;;38.02;32.34;94837.88;5099066;28;20243;-59
2022/08/17 07:27:51;;;;;;;1999.90;999.90;;;;;;;39.20;30.48;94841.00;5098279;28;20195;-62
2022/08/17 07:30:29;;;;;;;1999.90;999.90;;;;;;;39.51;29.77;94843.16;5099232;28;20180;-62
2022/08/17 07:33:07;;;;;;;1999.90;999.90;;;;;;;39.79;29.20;94845.16;5098568;28;20195;-62
2022/08/17 07:35:38;;;;;;;1999.90;999.90;;;;;;;40.29;29.22;94846.47;5098905;28;20192;-62
2022/08/17 07:38:14;;;;;;;1999.90;999.90;;;;;;;40.91;27.66;94847.00;5098512;28;20180;-62
2022/08/17 07:40:48;;;;;;;1999.90;999.90;;;;;;;41.38;26.81;94843.63;5098564;28;20183;-62
2022/08/17 07:43:20;;;;;;;1999.90;999.90;;;;;;;40.91;27.30;94847.00;5098806;28;20196;-58
2022/08/17 07:49:32;;;;;;;1999.90;999.90;;;;;;;40.23;27.87;94848.19;5116541;28;20342;-58
2022/08/17 07:52:02;;;;;;;1999.90;999.90;;;;;;;40.15;27.82;94859.06;5095905;28;20208;-59
2022/08/17 07:54:32;;;;;;;1999.90;999.90;;;;;;;40.58;28.00;94855.59;5097792;28;20192;-59
2022/08/17 07:57:23;;;;;;;1999.90;999.90;;;;;;;42.07;25.91;94860.13;5098076;28;20226;-59
2022/08/17 08:00:01;;;;;;;1999.90;999.90;;;;;;;41.60;25.76;94864.38;5097832;28;20186;-58
2022/08/17 08:02:37;;;;;;;1999.90;999.90;;;;;;;41.72;26.35;94870.88;5098103;28;20191;-56
2022/08/17 08:05:19;;;;;;;1999.90;999.90;;;;;;;42.25;25.37;94869.13;5097938;28;20206;-57
2022/08/17 08:07:55;;;;;;;1999.90;999.90;;;;;;;42.71;24.60;94864.00;5098373;28;20191;-55
2022/08/17 08:10:41;;;;;;;1999.90;999.90;;;;;;;42.92;24.62;94869.53;5115511;28;20211;-55
2022/08/17 08:13:20;;;;;;;1999.90;999.90;;;;;;;43.12;23.84;94862.09;5097672;28;20210;-56
2022/08/17 08:15:52;;;;;;;1999.90;999.90;;;;;;;43.26;23.58;94860.00;5098007;28;20194;-54
2022/08/17 08:18:27;;;;;;;1999.90;999.90;;;;;;;42.89;24.00;94850.66;5098185;28;20268;-55
2022/08/17 08:21:31;;;;;;;1999.90;999.90;;;;;;;41.98;25.14;94851.66;5097876;28;20205;-57
2022/08/17 08:24:15;;;;;;;1999.90;999.90;;;;;;;42.11;25.18;94866.13;5094563;28;20198;-58
2022/08/17 08:27:20;;;;;;;1999.90;999.90;;;;;;;42.89;24.18;94862.16;5097346;28;20273;-58
2022/08/17 08:30:21;;;;;;;1999.90;999.90;;;;;;;43.27;23.74;94852.88;5066854;28;20198;-58
2022/08/17 08:33:06;;;;;;;1999.90;999.90;;;;;;;43.94;23.38;94852.25;5091807;28;20211;-58
2022/08/17 08:35:36;;;;;;;1999.90;999.90;;;;;;;43.59;23.43;94851.78;5098174;28;20198;-56
2022/08/17 08:38:11;;;;;;;1999.90;999.90;;;;;;;44.03;23.45;94842.66;5097777;28;20175;-60
2022/08/17 08:41:01;;;;;;;1999.90;999.90;;;;;;;43.17;23.89;94852.28;5097598;28;20185;-61
2022/08/17 08:43:48;;;;;;;1999.90;999.90;;;;;;;43.21;23.63;94852.53;5097711;28;20191;-72
2022/08/17 08:46:39;;;;;;;1999.90;999.90;;;;;;;43.19;23.75;94845.91;5097876;28;20288;-69
2022/08/17 08:49:28;;;;;;;1999.90;999.90;;;;;;;43.99;22.74;94848.19;5097900;28;20192;-71
2022/08/17 08:51:55;;;;;;;1999.90;999.90;;;;;;;43.29;23.16;94852.22;5097019;28;20207;-72
2022/08/17 08:54:36;;;;;;;1999.90;999.90;;;;;;;43.60;23.04;94853.28;5096969;28;20187;-71
2022/08/17 08:57:10;;;;;;;1999.90;999.90;;;;;;;43.05;23.19;94850.88;5097189;28;20198;-70
2022/08/17 08:59:56;;;;;;;1999.90;999.90;;;;;;;42.73;23.99;94837.50;5096992;28;20239;-63
2022/08/17 09:02:29;;;;;;;1999.90;999.90;;;;;;;43.13;24.01;94834.81;5097319;28;20182;-60
2022/08/17 09:05:22;;;;;;;1999.90;999.90;;;;;;;42.67;23.66;94834.28;5097216;28;20277;-60
2022/08/17 09:08:06;;;;;;;1999.90;999.90;;;;;;;42.12;24.95;94838.88;5096977;28;20203;-62
2022/08/17 09:10:46;;;;;;;1999.90;999.90;;;;;;;42.17;24.30;94834.91;5096628;28;20231;-62
2022/08/17 09:13:12;;;;;;;1999.90;999.90;;;;;;;41.73;25.51;94837.94;5097206;28;20207;-63
2022/08/17 09:15:59;;;;;;;1999.90;999.90;;;;;;;42.47;24.40;94839.59;5097286;28;20187;-61
2022/08/17 09:18:32;;;;;;;1999.90;999.90;;;;;;;42.57;24.30;94842.28;5097219;28;20180;-58
2022/08/17 09:21:09;;;;;;;1999.90;999.90;;;;;;;42.63;23.65;94851.28;5096509;28;20297;-58
2022/08/17 09:23:41;;;;;;;1999.90;999.90;;;;;;;42.79;23.66;94846.47;5096809;28;20187;-58
2022/08/17 09:26:38;;;;;;;1999.90;999.90;;;;;;;42.24;24.35;94842.50;5096786;28;20202;-58
2022/08/17 09:29:09;;;;;;;1999.90;999.90;;;;;;;42.57;24.68;94830.78;5094369;28;20199;-59
2022/08/17 09:31:42;;;;;;;1999.90;999.90;;;;;;;41.81;24.87;94832.69;5096407;28;20200;-59
2022/08/17 09:34:17;;;;;;;1999.90;999.90;;;;;;;42.00;24.70;94829.56;5096275;28;20187;-58
2022/08/17 09:37:06;;;;;;;1999.90;999.90;;;;;;;41.74;25.01;94834.44;5096846;28;20180;-62
2022/08/17 09:39:54;;;;;;;1999.90;999.90;;;;;;;41.95;24.70;94838.56;5114532;28;20267;-60
2022/08/17 09:42:28;;;;;;;1999.90;999.90;;;;;;;41.30;25.75;94837.41;5095567;28;20192;-63
2022/08/17 09:45:20;;;;;;;1999.90;999.90;;;;;;;40.87;25.80;94835.28;5095583;28;20179;-61
2022/08/17 09:48:09;;;;;;;1999.90;999.90;;;;;;;40.85;25.77;94838.03;5096096;28;20184;-59
2022/08/17 09:50:55;;;;;;;1999.90;999.90;;;;;;;40.07;26.50;94829.88;5088165;28;20253;-62
2022/08/17 09:53:21;;;;;;;1999.90;999.90;;;;;;;40.56;26.39;94834.66;5096718;28;20203;-59
2022/08/17 09:56:08;;;;;;;1999.90;999.90;;;;;;;40.62;26.22;94826.47;5096232;28;20278;-56
2022/08/17 09:58:55;;;;;;;1999.90;999.90;;;;;;;40.96;25.74;94825.84;5096883;28;20191;-57
2022/08/17 10:01:38;;;;;;;1999.90;999.90;;;;;;;41.52;25.32;94826.56;5095907;28;20222;-57
2022/08/17 10:04:41;;;;;;;1999.90;999.90;;;;;;;42.00;24.83;94838.16;5096173;28;20176;-57
2022/08/17 10:07:18;;;;;;;1999.90;999.90;;;;;;;40.36;26.42;94839.03;5095959;28;20187;-57
2022/08/17 10:10:06;;;;;;;1999.90;999.90;;;;;;;40.36;26.52;94844.75;5095732;28;20203;-62
2022/08/17 10:13:04;;;;;;;1999.90;999.90;;;;;;;41.21;25.71;94846.09;5096461;28;20199;-57
2022/08/17 10:15:51;;;;;;;1999.90;999.90;;;;;;;41.82;24.92;94848.53;5095875;28;20231;-61
2022/08/17 10:19:00;;;;;;;1999.90;999.90;;;;;;;42.65;24.28;94843.53;5096383;28;20184;-60
2022/08/17 10:27:11;;;;;;;1999.90;999.90;;;;;;;41.48;24.74;94840.69;5114158;28;20186;-60
2022/08/17 10:30:02;;;;;;;1999.90;999.90;;;;;;;41.29;25.35;94830.16;5096284;28;20179;-60
2022/08/17 10:32:39;;;;;;;1999.90;999.90;;;;;;;40.19;25.49;94825.72;5096187;28;20225;-56
2022/08/17 10:35:17;;;;;;;1999.90;999.90;;;;;;;41.25;25.15;94818.41;5095771;28;20187;-56
2022/08/17 10:37:58;;;;;;;1999.90;999.90;;;;;;;42.09;24.31;94827.91;5113757;28;20172;-56
2022/08/17 10:40:44;;;;;;;1999.90;999.90;;;;;;;42.55;23.70;94831.41;5095702;28;20175;-55
2022/08/17 10:43:25;;;;;;;1999.90;999.90;;;;;;;40.79;25.40;94826.91;5095449;28;20180;-56
2022/08/17 10:46:03;;;;;;;1999.90;999.90;;;;;;;40.98;24.66;94828.81;5095822;28;20184;-55
2022/08/17 10:48:37;;;;;;;1999.90;999.90;;;;;;;40.56;25.79;94831.78;5095429;28;20191;-56
2022/08/17 10:51:25;;;;;;;1999.90;999.90;;;;;;;39.91;26.30;94835.28;5113374;28;20183;-67
2022/08/17 10:53:50;;;;;;;1999.90;999.90;;;;;;;39.81;26.69;94842.41;5113779;28;20190;-68
2022/08/17 10:56:21;;;;;;;1999.90;999.90;;;;;;;38.49;28.12;94840.03;5097113;28;20172;-69
2022/08/17 10:58:52;;;;;;;1999.90;999.90;;;;;;;38.26;28.60;94839.72;5099169;28;20223;-68
2022/08/17 11:01:38;;;;;;;1999.90;999.90;;;;;;;38.84;27.98;94835.50;5099344;28;20180;-70
2022/08/17 11:04:16;;;;;;;1999.90;999.90;;;;;;;39.59;26.97;94833.03;5098551;28;20196;-69
2022/08/17 11:07:01;;;;;;;1999.90;999.90;;;;;;;40.41;26.25;94840.81;5098916;28;20175;-57
2022/08/17 11:10:23;;;;;;;1999.90;999.90;;;;;;;40.94;25.79;94834.28;5098838;28;20287;-59
2022/08/17 11:12:53;;;;;;;1999.90;999.90;;;;;;;40.34;26.74;94830.31;5037452;28;20308;-59
2022/08/17 11:16:01;;;;;;;1999.90;999.90;;;;;;;39.68;27.47;94831.47;5037446;28;20197;-59
2022/08/17 11:18:53;;;;;;;1999.90;999.90;;;;;;;39.37;27.11;94836.44;5059725;28;20191;-59
2022/08/17 11:21:22;;;;;;;1999.90;999.90;;;;;;;39.94;27.46;94833.31;5098524;28;20250;-59
2022/08/17 11:23:57;;;;;;;1999.90;999.90;;;;;;;40.37;26.59;94829.81;5098290;28;20241;-67
2022/08/17 11:26:24;;;;;;;1999.90;999.90;;;;;;;40.13;27.11;94839.66;5098470;28;20272;-69
2022/08/17 11:28:55;;;;;;;1999.90;999.90;;;;;;;39.89;27.44;94828.66;5098714;28;20271;-70
2022/08/17 11:31:29;;;;;;;1999.90;999.90;;;;;;;39.58;27.49;94828.63;5098123;28;20183;-67
2022/08/17 11:34:12;;;;;;;1999.90;999.90;;;;;;;38.60;28.72;94830.88;5098419;28;20178;-69
2022/08/17 11:37:24;;;;;;;1999.90;999.90;;;;;;;38.60;28.71;94828.00;5098684;28;20184;-67
2022/08/17 11:40:05;;;;;;;1999.90;999.90;;;;;;;38.78;28.90;94825.75;5094023;28;20219;-68
2022/08/17 11:42:48;;;;;;;1999.90;999.90;;;;;;;38.77;28.90;94827.06;5098922;28;20179;-58
2022/08/17 11:45:37;;;;;;;1999.90;999.90;;;;;;;38.53;28.90;94823.19;5098417;28;20190;-60